sensor_id;sensor_type;location;lat;lon;timestamp;P1;durP1;ratioP1;P2;durP2;ratioP2
75311;SDS011;63906;55.686;37.532;2024-01-10T00:03:36;1.88;;;0.70;;
75311;SDS011;63906;55.686;37.532;2024-01-10T00:08:37;1.33;;;0.70;;
75311;SDS011;63906;55.686;37.532;2024-01-10T00:13:37;0.90;;;0.73;;
75311;SDS011;63906;55.686;37.532;2024-01-10T00:18:38;0.80;;;0.63;;
75311;SDS011;63906;55.686;37.532;2024-01-10T00:23:40;0.50;;;0.30;;
75311;SDS011;63906;55.686;37.532;2024-01-10T00:28:40;0.93;;;0.57;;
75311;SDS011;63906;55.686;37.532;2024-01-10T00:33:41;1.13;;;0.50;;
75311;SDS011;63906;55.686;37.532;2024-01-10T00:38:41;0.70;;;0.53;;
75311;SDS011;63906;55.686;37.532;2024-01-10T00:43:42;0.67;;;0.40;;
75311;SDS011;63906;55.686;37.532;2024-01-10T00:48:42;2.50;;;0.70;;
75311;SDS011;63906;55.686;37.532;2024-01-10T00:53:43;1.00;;;0.60;;
75311;SDS011;63906;55.686;37.532;2024-01-10T00:58:43;0.67;;;0.40;;
75311;SDS011;63906;55.686;37.532;2024-01-10T01:03:43;0.50;;;0.40;;
75311;SDS011;63906;55.686;37.532;2024-01-10T01:08:44;0.50;;;0.20;;
75311;SDS011;63906;55.686;37.532;2024-01-10T01:13:44;0.20;;;0.10;;
75311;SDS011;63906;55.686;37.532;2024-01-10T01:18:45;0.20;;;0.20;;
75311;SDS011;63906;55.686;37.532;2024-01-10T01:23:45;0.77;;;0.30;;
75311;SDS011;63906;55.686;37.532;2024-01-10T01:28:46;0.47;;;0.20;;
75311;SDS011;63906;55.686;37.532;2024-01-10T01:33:46;0.40;;;0.23;;
75311;SDS011;63906;55.686;37.532;2024-01-10T01:38:47;0.43;;;0.20;;
75311;SDS011;63906;55.686;37.532;2024-01-10T01:43:47;0.30;;;0.20;;
75311;SDS011;63906;55.686;37.532;2024-01-10T01:48:48;0.50;;;0.30;;
75311;SDS011;63906;55.686;37.532;2024-01-10T01:53:49;1.00;;;0.30;;
75311;SDS011;63906;55.686;37.532;2024-01-10T01:58:51;0.40;;;0.30;;
75311;SDS011;63906;55.686;37.532;2024-01-10T02:03:51;0.60;;;0.25;;
75311;SDS011;63906;55.686;37.532;2024-01-10T02:08:52;0.15;;;0.10;;
75311;SDS011;63906;55.686;37.532;2024-01-10T02:13:53;0.77;;;0.40;;
75311;SDS011;63906;55.686;37.532;2024-01-10T02:18:56;0.30;;;0.10;;
75311;SDS011;63906;55.686;37.532;2024-01-10T02:23:57;0.10;;;0.03;;
75311;SDS011;63906;55.686;37.532;2024-01-10T02:28:57;0.30;;;0.20;;
75311;SDS011;63906;55.686;37.532;2024-01-10T02:33:57;0.30;;;0.10;;
75311;SDS011;63906;55.686;37.532;2024-01-10T02:38:58;0.10;;;0.10;;
75311;SDS011;63906;55.686;37.532;2024-01-10T02:43:58;0.10;;;0.10;;
75311;SDS011;63906;55.686;37.532;2024-01-10T02:48:59;0.20;;;0.15;;
75311;SDS011;63906;55.686;37.532;2024-01-10T02:53:59;0.00;;;0.00;;
75311;SDS011;63906;55.686;37.532;2024-01-10T02:59:00;0.23;;;0.13;;
75311;SDS011;63906;55.686;37.532;2024-01-10T03:04:00;0.20;;;0.10;;
75311;SDS011;63906;55.686;37.532;2024-01-10T03:09:02;0.17;;;0.13;;
75311;SDS011;63906;55.686;37.532;2024-01-10T03:14:04;0.30;;;0.20;;
75311;SDS011;63906;55.686;37.532;2024-01-10T03:19:08;0.20;;;0.10;;
75311;SDS011;63906;55.686;37.532;2024-01-10T03:24:08;0.80;;;0.20;;
75311;SDS011;63906;55.686;37.532;2024-01-10T03:29:09;0.68;;;0.32;;
75311;SDS011;63906;55.686;37.532;2024-01-10T03:34:09;0.50;;;0.30;;
75311;SDS011;63906;55.686;37.532;2024-01-10T03:39:09;0.50;;;0.40;;
75311;SDS011;63906;55.686;37.532;2024-01-10T03:44:10;0.40;;;0.30;;
75311;SDS011;63906;55.686;37.532;2024-01-10T03:49:11;1.43;;;0.77;;
75311;SDS011;63906;55.686;37.532;2024-01-10T03:54:11;0.87;;;0.47;;
75311;SDS011;63906;55.686;37.532;2024-01-10T03:59:11;1.67;;;0.60;;
75311;SDS011;63906;55.686;37.532;2024-01-10T04:04:12;1.27;;;0.80;;
75311;SDS011;63906;55.686;37.532;2024-01-10T04:09:12;2.50;;;0.77;;
75311;SDS011;63906;55.686;37.532;2024-01-10T04:14:13;3.35;;;1.35;;
75311;SDS011;63906;55.686;37.532;2024-01-10T04:19:13;4.23;;;2.40;;
75311;SDS011;63906;55.686;37.532;2024-01-10T04:24:14;5.50;;;3.03;;
75311;SDS011;63906;55.686;37.532;2024-01-10T04:29:14;5.70;;;2.77;;
75311;SDS011;63906;55.686;37.532;2024-01-10T04:34:15;6.33;;;3.97;;
75311;SDS011;63906;55.686;37.532;2024-01-10T04:39:15;7.60;;;3.10;;
75311;SDS011;63906;55.686;37.532;2024-01-10T04:44:16;6.13;;;3.80;;
75311;SDS011;63906;55.686;37.532;2024-01-10T04:49:16;7.13;;;3.00;;
75311;SDS011;63906;55.686;37.532;2024-01-10T04:54:17;6.43;;;3.30;;
75311;SDS011;63906;55.686;37.532;2024-01-10T04:59:17;7.83;;;3.37;;
75311;SDS011;63906;55.686;37.532;2024-01-10T05:04:18;5.32;;;3.03;;
75311;SDS011;63906;55.686;37.532;2024-01-10T05:09:18;9.20;;;3.47;;
75311;SDS011;63906;55.686;37.532;2024-01-10T05:14:19;7.10;;;2.83;;
75311;SDS011;63906;55.686;37.532;2024-01-10T05:19:19;6.33;;;3.77;;
75311;SDS011;63906;55.686;37.532;2024-01-10T05:24:20;6.10;;;2.93;;
75311;SDS011;63906;55.686;37.532;2024-01-10T05:29:20;5.67;;;2.67;;
75311;SDS011;63906;55.686;37.532;2024-01-10T05:34:23;6.63;;;2.33;;
75311;SDS011;63906;55.686;37.532;2024-01-10T05:39:24;4.47;;;2.30;;
75311;SDS011;63906;55.686;37.532;2024-01-10T05:44:24;5.68;;;2.65;;
75311;SDS011;63906;55.686;37.532;2024-01-10T05:49:25;5.00;;;2.93;;
75311;SDS011;63906;55.686;37.532;2024-01-10T05:54:26;5.82;;;2.88;;
75311;SDS011;63906;55.686;37.532;2024-01-10T05:59:27;5.53;;;2.78;;
75311;SDS011;63906;55.686;37.532;2024-01-10T06:04:29;5.03;;;2.63;;
75311;SDS011;63906;55.686;37.532;2024-01-10T06:09:31;4.85;;;2.38;;
75311;SDS011;63906;55.686;37.532;2024-01-10T06:14:31;4.53;;;2.13;;
75311;SDS011;63906;55.686;37.532;2024-01-10T06:19:32;2.63;;;1.67;;
75311;SDS011;63906;55.686;37.532;2024-01-10T06:24:32;5.83;;;2.20;;
75311;SDS011;63906;55.686;37.532;2024-01-10T06:29:33;5.40;;;2.53;;
75311;SDS011;63906;55.686;37.532;2024-01-10T06:34:34;4.30;;;2.20;;
75311;SDS011;63906;55.686;37.532;2024-01-10T06:39:34;5.37;;;2.50;;
75311;SDS011;63906;55.686;37.532;2024-01-10T06:44:35;5.18;;;2.85;;
75311;SDS011;63906;55.686;37.532;2024-01-10T06:49:36;3.42;;;2.50;;
75311;SDS011;63906;55.686;37.532;2024-01-10T06:54:37;4.38;;;3.20;;
75311;SDS011;63906;55.686;37.532;2024-01-10T06:59:37;5.25;;;3.03;;
75311;SDS011;63906;55.686;37.532;2024-01-10T07:04:38;7.90;;;2.87;;
75311;SDS011;63906;55.686;37.532;2024-01-10T07:09:38;5.10;;;2.67;;
75311;SDS011;63906;55.686;37.532;2024-01-10T07:14:41;5.20;;;2.90;;
75311;SDS011;63906;55.686;37.532;2024-01-10T07:19:41;5.25;;;2.78;;
75311;SDS011;63906;55.686;37.532;2024-01-10T07:24:42;4.90;;;2.35;;
75311;SDS011;63906;55.686;37.532;2024-01-10T07:29:42;4.82;;;2.35;;
75311;SDS011;63906;55.686;37.532;2024-01-10T07:34:43;4.03;;;2.23;;
75311;SDS011;63906;55.686;37.532;2024-01-10T07:39:44;5.18;;;2.40;;
75311;SDS011;63906;55.686;37.532;2024-01-10T07:44:45;3.83;;;2.13;;
75311;SDS011;63906;55.686;37.532;2024-01-10T07:49:45;6.30;;;2.77;;
75311;SDS011;63906;55.686;37.532;2024-01-10T07:54:46;4.93;;;2.37;;
75311;SDS011;63906;55.686;37.532;2024-01-10T07:59:46;3.47;;;2.20;;
75311;SDS011;63906;55.686;37.532;2024-01-10T08:04:47;5.10;;;2.10;;
75311;SDS011;63906;55.686;37.532;2024-01-10T08:09:48;4.03;;;2.15;;
75311;SDS011;63906;55.686;37.532;2024-01-10T08:14:48;5.07;;;2.37;;
75311;SDS011;63906;55.686;37.532;2024-01-10T08:19:50;5.20;;;2.15;;
75311;SDS011;63906;55.686;37.532;2024-01-10T08:24:52;3.45;;;2.28;;
75311;SDS011;63906;55.686;37.532;2024-01-10T08:29:52;6.22;;;2.90;;
75311;SDS011;63906;55.686;37.532;2024-01-10T08:34:53;5.65;;;2.72;;
75311;SDS011;63906;55.686;37.532;2024-01-10T08:39:53;10.23;;;2.70;;
75311;SDS011;63906;55.686;37.532;2024-01-10T08:44:54;6.80;;;3.23;;
75311;SDS011;63906;55.686;37.532;2024-01-10T08:49:56;5.53;;;3.10;;
75311;SDS011;63906;55.686;37.532;2024-01-10T08:54:56;4.17;;;2.33;;
75311;SDS011;63906;55.686;37.532;2024-01-10T08:59:57;4.82;;;2.70;;
75311;SDS011;63906;55.686;37.532;2024-01-10T09:04:57;5.30;;;2.30;;
75311;SDS011;63906;55.686;37.532;2024-01-10T09:10:00;5.53;;;2.67;;
75311;SDS011;63906;55.686;37.532;2024-01-10T09:15:01;3.50;;;1.93;;
75311;SDS011;63906;55.686;37.532;2024-01-10T09:20:01;3.65;;;2.13;;
75311;SDS011;63906;55.686;37.532;2024-01-10T09:25:06;3.42;;;1.85;;
75311;SDS011;63906;55.686;37.532;2024-01-10T09:30:07;3.17;;;1.95;;
75311;SDS011;63906;55.686;37.532;2024-01-10T09:35:10;5.10;;;2.72;;
75311;SDS011;63906;55.686;37.532;2024-01-10T09:40:13;4.88;;;2.20;;
75311;SDS011;63906;55.686;37.532;2024-01-10T09:45:15;4.70;;;2.03;;
75311;SDS011;63906;55.686;37.532;2024-01-10T09:50:18;4.30;;;2.13;;
75311;SDS011;63906;55.686;37.532;2024-01-10T09:55:22;6.38;;;2.50;;
75311;SDS011;63906;55.686;37.532;2024-01-10T10:00:23;4.90;;;2.63;;
75311;SDS011;63906;55.686;37.532;2024-01-10T10:05:25;4.90;;;2.72;;
75311;SDS011;63906;55.686;37.532;2024-01-10T10:10:26;4.05;;;2.42;;
75311;SDS011;63906;55.686;37.532;2024-01-10T10:15:28;4.65;;;2.40;;
75311;SDS011;63906;55.686;37.532;2024-01-10T10:20:29;7.93;;;2.83;;
75311;SDS011;63906;55.686;37.532;2024-01-10T10:25:33;4.03;;;2.05;;
75311;SDS011;63906;55.686;37.532;2024-01-10T10:30:35;3.40;;;2.35;;
75311;SDS011;63906;55.686;37.532;2024-01-10T10:35:35;4.72;;;2.13;;
75311;SDS011;63906;55.686;37.532;2024-01-10T10:40:36;5.40;;;2.15;;
75311;SDS011;63906;55.686;37.532;2024-01-10T10:45:37;5.30;;;2.60;;
75311;SDS011;63906;55.686;37.532;2024-01-10T10:50:38;4.85;;;2.50;;
75311;SDS011;63906;55.686;37.532;2024-01-10T10:55:38;6.70;;;2.47;;
75311;SDS011;63906;55.686;37.532;2024-01-10T11:00:40;5.70;;;2.60;;
75311;SDS011;63906;55.686;37.532;2024-01-10T11:05:43;4.63;;;2.53;;
75311;SDS011;63906;55.686;37.532;2024-01-10T11:10:46;4.10;;;2.17;;
75311;SDS011;63906;55.686;37.532;2024-01-10T11:21:36;3.72;;;2.13;;
75311;SDS011;63906;55.686;37.532;2024-01-10T11:27:12;3.63;;;2.10;;
75311;SDS011;63906;55.686;37.532;2024-01-10T11:32:15;4.53;;;2.00;;
75311;SDS011;63906;55.686;37.532;2024-01-10T11:37:16;3.40;;;2.40;;
75311;SDS011;63906;55.686;37.532;2024-01-10T11:42:23;4.50;;;2.33;;
75311;SDS011;63906;55.686;37.532;2024-01-10T11:47:40;5.45;;;2.47;;
75311;SDS011;63906;55.686;37.532;2024-01-10T11:52:42;4.43;;;2.10;;
75311;SDS011;63906;55.686;37.532;2024-01-10T11:57:43;5.03;;;2.70;;
75311;SDS011;63906;55.686;37.532;2024-01-10T12:02:44;3.25;;;2.00;;
75311;SDS011;63906;55.686;37.532;2024-01-10T12:07:50;5.97;;;2.72;;
75311;SDS011;63906;55.686;37.532;2024-01-10T12:12:52;5.22;;;2.42;;
75311;SDS011;63906;55.686;37.532;2024-01-10T12:17:54;4.60;;;2.25;;
75311;SDS011;63906;55.686;37.532;2024-01-10T12:22:56;5.88;;;2.55;;
75311;SDS011;63906;55.686;37.532;2024-01-10T12:28:01;4.25;;;2.80;;
75311;SDS011;63906;55.686;37.532;2024-01-10T12:33:02;4.55;;;2.55;;
75311;SDS011;63906;55.686;37.532;2024-01-10T12:38:02;4.47;;;2.40;;
75311;SDS011;63906;55.686;37.532;2024-01-10T12:43:06;3.38;;;1.85;;
75311;SDS011;63906;55.686;37.532;2024-01-10T12:48:12;5.03;;;2.70;;
75311;SDS011;63906;55.686;37.532;2024-01-10T12:53:17;3.10;;;1.90;;
75311;SDS011;63906;55.686;37.532;2024-01-10T12:58:17;3.88;;;1.90;;
75311;SDS011;63906;55.686;37.532;2024-01-10T13:03:18;5.90;;;1.87;;
75311;SDS011;63906;55.686;37.532;2024-01-10T13:08:18;5.00;;;2.03;;
75311;SDS011;63906;55.686;37.532;2024-01-10T13:13:20;4.22;;;1.70;;
75311;SDS011;63906;55.686;37.532;2024-01-10T13:18:22;5.13;;;2.03;;
75311;SDS011;63906;55.686;37.532;2024-01-10T13:23:22;5.15;;;1.80;;
75311;SDS011;63906;55.686;37.532;2024-01-10T13:28:24;3.40;;;2.08;;
75311;SDS011;63906;55.686;37.532;2024-01-10T13:33:24;3.83;;;2.17;;
75311;SDS011;63906;55.686;37.532;2024-01-10T13:38:28;5.00;;;2.40;;
75311;SDS011;63906;55.686;37.532;2024-01-10T13:43:28;5.67;;;2.27;;
75311;SDS011;63906;55.686;37.532;2024-01-10T13:48:29;4.07;;;1.90;;
75311;SDS011;63906;55.686;37.532;2024-01-10T13:53:29;5.68;;;1.58;;
75311;SDS011;63906;55.686;37.532;2024-01-10T13:58:30;5.93;;;2.20;;
75311;SDS011;63906;55.686;37.532;2024-01-10T14:03:30;4.00;;;1.93;;
75311;SDS011;63906;55.686;37.532;2024-01-10T14:08:31;3.67;;;1.47;;
75311;SDS011;63906;55.686;37.532;2024-01-10T14:13:31;3.65;;;1.80;;
75311;SDS011;63906;55.686;37.532;2024-01-10T14:18:32;4.27;;;1.67;;
75311;SDS011;63906;55.686;37.532;2024-01-10T14:23:33;3.60;;;1.83;;
75311;SDS011;63906;55.686;37.532;2024-01-10T14:28:33;3.93;;;1.47;;
75311;SDS011;63906;55.686;37.532;2024-01-10T14:33:34;3.53;;;2.20;;
75311;SDS011;63906;55.686;37.532;2024-01-10T14:38:34;6.73;;;2.57;;
75311;SDS011;63906;55.686;37.532;2024-01-10T14:43:38;4.47;;;2.20;;
75311;SDS011;63906;55.686;37.532;2024-01-10T14:53:39;6.60;;;2.13;;
75311;SDS011;63906;55.686;37.532;2024-01-10T14:58:40;4.57;;;2.70;;
75311;SDS011;63906;55.686;37.532;2024-01-10T15:03:40;6.43;;;2.63;;
75311;SDS011;63906;55.686;37.532;2024-01-10T15:08:42;4.07;;;2.30;;
75311;SDS011;63906;55.686;37.532;2024-01-10T15:13:43;4.57;;;2.63;;
75311;SDS011;63906;55.686;37.532;2024-01-10T15:18:43;4.75;;;2.95;;
75311;SDS011;63906;55.686;37.532;2024-01-10T15:23:45;5.22;;;2.17;;
75311;SDS011;63906;55.686;37.532;2024-01-10T15:28:45;3.15;;;2.10;;
75311;SDS011;63906;55.686;37.532;2024-01-10T15:33:46;8.00;;;2.85;;
75311;SDS011;63906;55.686;37.532;2024-01-10T15:38:46;5.68;;;2.40;;
75311;SDS011;63906;55.686;37.532;2024-01-10T15:43:47;3.90;;;2.00;;
75311;SDS011;63906;55.686;37.532;2024-01-10T15:48:47;5.27;;;2.47;;
75311;SDS011;63906;55.686;37.532;2024-01-10T15:53:48;4.43;;;2.22;;
75311;SDS011;63906;55.686;37.532;2024-01-10T15:58:50;4.82;;;3.42;;
75311;SDS011;63906;55.686;37.532;2024-01-10T16:03:50;3.27;;;2.97;;
75311;SDS011;63906;55.686;37.532;2024-01-10T16:08:51;7.27;;;3.70;;
75311;SDS011;63906;55.686;37.532;2024-01-10T16:13:51;6.03;;;2.70;;
75311;SDS011;63906;55.686;37.532;2024-01-10T16:18:52;5.70;;;2.97;;
75311;SDS011;63906;55.686;37.532;2024-01-10T16:23:53;5.50;;;2.57;;
75311;SDS011;63906;55.686;37.532;2024-01-10T16:28:53;7.00;;;3.00;;
75311;SDS011;63906;55.686;37.532;2024-01-10T16:33:55;6.47;;;2.63;;
75311;SDS011;63906;55.686;37.532;2024-01-10T16:38:55;7.10;;;3.13;;
75311;SDS011;63906;55.686;37.532;2024-01-10T16:43:56;3.40;;;2.15;;
75311;SDS011;63906;55.686;37.532;2024-01-10T16:48:57;6.73;;;2.60;;
75311;SDS011;63906;55.686;37.532;2024-01-10T16:53:58;3.75;;;2.35;;
75311;SDS011;63906;55.686;37.532;2024-01-10T16:58:59;4.65;;;2.50;;
75311;SDS011;63906;55.686;37.532;2024-01-10T17:03:59;7.97;;;3.00;;
75311;SDS011;63906;55.686;37.532;2024-01-10T17:09:00;4.20;;;2.80;;
75311;SDS011;63906;55.686;37.532;2024-01-10T17:14:01;4.85;;;2.72;;
75311;SDS011;63906;55.686;37.532;2024-01-10T17:19:01;7.97;;;3.03;;
75311;SDS011;63906;55.686;37.532;2024-01-10T17:24:02;5.57;;;2.40;;
75311;SDS011;63906;55.686;37.532;2024-01-10T17:29:03;4.45;;;2.53;;
75311;SDS011;63906;55.686;37.532;2024-01-10T17:34:04;6.30;;;2.95;;
75311;SDS011;63906;55.686;37.532;2024-01-10T17:39:05;6.40;;;3.15;;
75311;SDS011;63906;55.686;37.532;2024-01-10T17:44:05;7.67;;;3.87;;
75311;SDS011;63906;55.686;37.532;2024-01-10T17:49:06;6.80;;;2.75;;
75311;SDS011;63906;55.686;37.532;2024-01-10T17:54:07;9.63;;;3.67;;
75311;SDS011;63906;55.686;37.532;2024-01-10T17:59:08;7.32;;;2.97;;
75311;SDS011;63906;55.686;37.532;2024-01-10T18:04:09;6.50;;;2.83;;
75311;SDS011;63906;55.686;37.532;2024-01-10T18:09:09;7.50;;;2.73;;
75311;SDS011;63906;55.686;37.532;2024-01-10T18:14:10;4.35;;;2.38;;
75311;SDS011;63906;55.686;37.532;2024-01-10T18:19:10;5.47;;;2.50;;
75311;SDS011;63906;55.686;37.532;2024-01-10T18:24:12;8.45;;;3.15;;
75311;SDS011;63906;55.686;37.532;2024-01-10T18:29:12;4.90;;;2.55;;
75311;SDS011;63906;55.686;37.532;2024-01-10T18:34:17;7.97;;;2.80;;
75311;SDS011;63906;55.686;37.532;2024-01-10T18:39:17;4.18;;;2.28;;
75311;SDS011;63906;55.686;37.532;2024-01-10T18:44:20;4.40;;;2.55;;
75311;SDS011;63906;55.686;37.532;2024-01-10T18:49:20;6.47;;;3.00;;
75311;SDS011;63906;55.686;37.532;2024-01-10T18:54:21;5.28;;;2.97;;
75311;SDS011;63906;55.686;37.532;2024-01-10T18:59:22;2.35;;;2.15;;
75311;SDS011;63906;55.686;37.532;2024-01-10T19:04:23;4.43;;;2.70;;
75311;SDS011;63906;55.686;37.532;2024-01-10T19:09:24;3.38;;;2.22;;
75311;SDS011;63906;55.686;37.532;2024-01-10T19:14:24;5.88;;;3.00;;
75311;SDS011;63906;55.686;37.532;2024-01-10T19:19:25;5.03;;;2.70;;
75311;SDS011;63906;55.686;37.532;2024-01-10T19:24:26;4.80;;;2.08;;
75311;SDS011;63906;55.686;37.532;2024-01-10T19:29:26;5.13;;;2.43;;
75311;SDS011;63906;55.686;37.532;2024-01-10T19:34:27;5.45;;;2.47;;
75311;SDS011;63906;55.686;37.532;2024-01-10T19:39:28;6.82;;;2.88;;
75311;SDS011;63906;55.686;37.532;2024-01-10T19:44:28;3.13;;;2.10;;
75311;SDS011;63906;55.686;37.532;2024-01-10T19:49:29;3.20;;;1.95;;
75311;SDS011;63906;55.686;37.532;2024-01-10T19:54:31;4.82;;;2.40;;
75311;SDS011;63906;55.686;37.532;2024-01-10T19:59:32;4.05;;;2.28;;
75311;SDS011;63906;55.686;37.532;2024-01-10T20:04:33;2.83;;;1.60;;
75311;SDS011;63906;55.686;37.532;2024-01-10T20:09:33;4.38;;;2.00;;
75311;SDS011;63906;55.686;37.532;2024-01-10T20:14:38;3.53;;;2.35;;
75311;SDS011;63906;55.686;37.532;2024-01-10T20:19:39;5.30;;;2.42;;
75311;SDS011;63906;55.686;37.532;2024-01-10T20:24:39;5.40;;;2.47;;
75311;SDS011;63906;55.686;37.532;2024-01-10T20:29:40;2.88;;;1.77;;
75311;SDS011;63906;55.686;37.532;2024-01-10T20:34:44;4.78;;;1.77;;
75311;SDS011;63906;55.686;37.532;2024-01-10T20:39:47;5.50;;;2.20;;
75311;SDS011;63906;55.686;37.532;2024-01-10T20:44:48;4.18;;;1.85;;
75311;SDS011;63906;55.686;37.532;2024-01-10T20:49:48;4.75;;;2.45;;
75311;SDS011;63906;55.686;37.532;2024-01-10T20:54:49;6.20;;;2.10;;
75311;SDS011;63906;55.686;37.532;2024-01-10T20:59:50;5.60;;;2.25;;
75311;SDS011;63906;55.686;37.532;2024-01-10T21:04:53;3.97;;;1.90;;
75311;SDS011;63906;55.686;37.532;2024-01-10T21:09:53;3.90;;;2.05;;
75311;SDS011;63906;55.686;37.532;2024-01-10T21:14:54;4.38;;;1.75;;
75311;SDS011;63906;55.686;37.532;2024-01-10T21:19:57;4.75;;;2.30;;
75311;SDS011;63906;55.686;37.532;2024-01-10T21:24:57;5.30;;;2.33;;
75311;SDS011;63906;55.686;37.532;2024-01-10T21:29:57;5.97;;;2.70;;
75311;SDS011;63906;55.686;37.532;2024-01-10T21:34:58;4.18;;;2.53;;
75311;SDS011;63906;55.686;37.532;2024-01-10T21:39:59;4.68;;;2.05;;
75311;SDS011;63906;55.686;37.532;2024-01-10T21:44:59;6.10;;;2.37;;
75311;SDS011;63906;55.686;37.532;2024-01-10T21:50:00;4.40;;;2.13;;
75311;SDS011;63906;55.686;37.532;2024-01-10T21:55:00;6.05;;;2.40;;
75311;SDS011;63906;55.686;37.532;2024-01-10T22:00:02;5.88;;;1.92;;
75311;SDS011;63906;55.686;37.532;2024-01-10T22:05:05;4.43;;;1.92;;
75311;SDS011;63906;55.686;37.532;2024-01-10T22:10:06;4.78;;;2.03;;
75311;SDS011;63906;55.686;37.532;2024-01-10T22:15:07;5.18;;;2.53;;
75311;SDS011;63906;55.686;37.532;2024-01-10T22:20:08;5.40;;;2.08;;
75311;SDS011;63906;55.686;37.532;2024-01-10T22:25:11;3.25;;;2.35;;
75311;SDS011;63906;55.686;37.532;2024-01-10T22:30:12;3.97;;;2.13;;
75311;SDS011;63906;55.686;37.532;2024-01-10T22:35:13;5.13;;;1.83;;
75311;SDS011;63906;55.686;37.532;2024-01-10T22:40:13;2.60;;;1.45;;
75311;SDS011;63906;55.686;37.532;2024-01-10T22:45:14;4.03;;;1.92;;
75311;SDS011;63906;55.686;37.532;2024-01-10T22:50:14;4.13;;;1.50;;
75311;SDS011;63906;55.686;37.532;2024-01-10T23:00:18;4.60;;;1.80;;
75311;SDS011;63906;55.686;37.532;2024-01-10T23:05:21;3.90;;;2.17;;
75311;SDS011;63906;55.686;37.532;2024-01-10T23:10:23;4.05;;;1.40;;
75311;SDS011;63906;55.686;37.532;2024-01-10T23:15:24;4.35;;;1.40;;
75311;SDS011;63906;55.686;37.532;2024-01-10T23:20:25;2.97;;;1.57;;
75311;SDS011;63906;55.686;37.532;2024-01-10T23:25:25;3.53;;;1.10;;
75311;SDS011;63906;55.686;37.532;2024-01-10T23:30:26;1.80;;;1.10;;
75311;SDS011;63906;55.686;37.532;2024-01-10T23:35:26;3.50;;;1.40;;
75311;SDS011;63906;55.686;37.532;2024-01-10T23:40:28;2.85;;;1.50;;
75311;SDS011;63906;55.686;37.532;2024-01-10T23:45:29;3.45;;;1.38;;
75311;SDS011;63906;55.686;37.532;2024-01-10T23:50:29;1.77;;;1.13;;
75311;SDS011;63906;55.686;37.532;2024-01-10T23:55:30;2.40;;;1.03;;
